Time;durP1;ratioP1;P1;durP2;ratioP2;P2;SDS_P1;SDS_P2;PMS_P1;PMS_P2;Temp;Humidity;BMP_temperature;BMP_pressure;BME280_temperature;BME280_humidity;BME280_pressure;Samples;Min_cycle;Max_cycle;Signal;HPM_P1;HPM_P2
2023/10/19 00:01:28;;;;;;;33.10;17.10;;;;;;;4.08;66.99;101126.52;107586;1252;108292;-62
2023/10/19 00:03:57;;;;;;;42.20;20.00;;;;;;;4.07;66.94;101122.70;107597;1253;97941;-62
2023/10/19 00:06:25;;;;;;;39.50;17.80;;;;;;;4.08;67.19;101125.46;107598;1250;97726;-63
2023/10/19 00:08:54;;;;;;;37.90;18.00;;;;;;;4.09;67.25;101126.14;107618;1251;111167;-61
2023/10/19 00:11:24;;;;;;;37.90;17.30;;;;;;;4.08;67.26;101126.17;107548;1255;109742;-62
2023/10/19 00:13:57;;;;;;;33.80;17.40;;;;;;;4.08;67.14;101123.89;107577;1253;108267;-62
2023/10/19 00:16:29;;;;;;;33.30;16.80;;;;;;;4.07;67.30;101122.67;107557;1251;98519;-62
2023/10/19 00:18:59;;;;;;;35.60;17.90;;;;;;;4.07;67.31;101122.31;107522;1251;97951;-62
2023/10/19 00:21:28;;;;;;;37.80;16.60;;;;;;;4.08;67.30;101119.77;107538;1253;112999;-62
2023/10/19 00:23:57;;;;;;;38.40;17.40;;;;;;;4.08;67.02;101123.20;107578;1251;110006;-60
2023/10/19 00:26:29;;;;;;;35.70;16.30;;;;;;;4.07;67.20;101126.23;107587;1253;107120;-61
2023/10/19 00:29:06;;;;;;;37.10;15.10;;;;;;;4.07;67.16;101123.42;107527;1255;97858;-63
2023/10/19 00:31:40;;;;;;;32.70;16.30;;;;;;;4.06;67.01;101123.63;107613;1252;97825;-61
2023/10/19 00:34:08;;;;;;;34.50;15.70;;;;;;;4.03;66.81;101118.30;107585;1252;111685;-62
2023/10/19 00:36:39;;;;;;;36.10;17.30;;;;;;;3.98;66.71;101122.67;107560;1253;108982;-63
2023/10/19 00:39:15;;;;;;;31.30;15.60;;;;;;;3.93;66.74;101124.52;107521;1252;107703;-63
2023/10/19 00:41:45;;;;;;;34.30;15.70;;;;;;;3.90;66.85;101125.55;107598;1254;97912;-62
2023/10/19 00:44:22;;;;;;;36.40;16.30;;;;;;;3.88;66.62;101121.08;107678;1252;98392;-63
2023/10/19 00:47:00;;;;;;;35.80;16.60;;;;;;;3.86;66.69;101119.59;107639;1253;110884;-62
2023/10/19 00:49:30;;;;;;;44.30;15.90;;;;;;;3.83;66.64;101124.89;107604;1253;108349;-62
2023/10/19 00:52:10;;;;;;;38.50;17.00;;;;;;;3.78;66.73;101128.73;107651;1252;108194;-61
2023/10/19 00:57:33;;;;;;;35.70;16.00;;;;;;;3.72;66.75;101126.19;107643;1253;98007;-62
2023/10/19 01:00:12;;;;;;;40.30;17.70;;;;;;;3.64;66.54;101122.73;107597;1254;111375;-64
2023/10/19 01:02:45;;;;;;;34.00;15.10;;;;;;;3.54;66.64;101123.63;107613;1255;109393;-61
2023/10/19 01:05:13;;;;;;;35.40;16.10;;;;;;;3.43;66.78;101120.96;107575;1253;107918;-63
2023/10/19 01:07:41;;;;;;;29.90;16.30;;;;;;;3.36;66.77;101118.69;107613;1251;98505;-62
2023/10/19 01:10:20;;;;;;;30.80;16.40;;;;;;;3.26;67.17;101113.92;107684;1250;97736;-63
2023/10/19 01:12:50;;;;;;;29.50;17.20;;;;;;;3.20;67.12;101113.70;107598;1250;112995;-63
2023/10/19 01:15:29;;;;;;;33.70;17.20;;;;;;;3.21;67.52;101116.50;107593;1251;109919;-62
2023/10/19 01:17:59;;;;;;;35.60;17.20;;;;;;;3.21;67.52;101115.23;107530;1253;107524;-63
2023/10/19 01:31:17;;;;;;;34.20;15.80;;;;;;;3.15;68.27;101108.11;107272;1251;107313;-62
2023/10/19 01:33:46;;;;;;;33.60;17.80;;;;;;;3.13;68.21;101107.30;107572;1253;97839;-63
2023/10/19 01:36:24;;;;;;;36.50;16.30;;;;;;;3.13;68.29;101103.96;107539;1253;97882;-61
2023/10/19 01:39:10;;;;;;;31.60;16.90;;;;;;;3.12;68.28;101100.82;107638;1251;110519;-63
2023/10/19 01:41:41;;;;;;;27.90;14.80;;;;;;;3.10;68.25;101104.05;107523;1253;108550;-62
2023/10/19 01:44:13;;;;;;;31.80;14.80;;;;;;;3.09;68.19;101100.25;107567;1251;108318;-63
2023/10/19 01:46:46;;;;;;;29.10;15.00;;;;;;;3.06;68.16;101096.90;107494;1253;97848;-62
2023/10/19 01:49:26;;;;;;;31.40;16.20;;;;;;;3.04;68.18;101092.55;107502;1251;98223;-63
2023/10/19 01:51:55;;;;;;;26.80;15.00;;;;;;;3.03;68.43;101094.52;107639;1251;110991;-62
2023/10/19 01:54:24;;;;;;;29.90;14.40;;;;;;;3.01;68.22;101094.98;107563;1253;109953;-63
2023/10/19 01:56:56;;;;;;;38.00;15.00;;;;;;;3.01;68.32;101093.25;107529;1252;108042;-62
2023/10/19 01:59:27;;;;;;;34.70;17.10;;;;;;;2.94;68.30;101093.39;107420;1253;97739;-64
2023/10/19 02:01:57;;;;;;;27.50;14.60;;;;;;;2.91;68.37;101093.58;107544;1253;98465;-63
2023/10/19 02:04:26;;;;;;;32.10;14.60;;;;;;;2.87;68.52;101091.30;107614;1253;111099;-62
2023/10/19 02:06:54;;;;;;;29.00;16.10;;;;;;;2.83;68.61;101083.70;107557;1253;109993;-62
2023/10/19 02:09:26;;;;;;;27.20;14.70;;;;;;;2.81;68.88;101087.65;107595;1253;107529;-62
2023/10/19 02:11:57;;;;;;;34.20;16.50;;;;;;;2.81;68.91;101087.88;107563;1251;97831;-64
2023/10/19 02:14:30;;;;;;;25.60;14.50;;;;;;;2.79;68.75;101087.61;107594;1257;97724;-62
2023/10/19 02:17:03;;;;;;;26.60;14.90;;;;;;;2.78;68.85;101088.20;107642;1251;110712;-62
2023/10/19 02:19:32;;;;;;;25.30;14.70;;;;;;;2.76;68.90;101092.00;107707;1251;110056;-63
2023/10/19 02:22:11;;;;;;;33.10;15.10;;;;;;;2.76;69.05;101092.38;107586;1252;107285;-63
2023/10/19 02:24:40;;;;;;;33.40;16.40;;;;;;;2.74;69.03;101091.76;107637;1252;97882;-62
2023/10/19 02:27:09;;;;;;;36.90;17.50;;;;;;;2.74;68.99;101094.98;107494;1251;97838;-62
2023/10/19 02:29:46;;;;;;;30.10;14.60;;;;;;;2.72;69.03;101095.77;107560;1252;111083;-62
2023/10/19 02:32:18;;;;;;;28.20;16.40;;;;;;;2.71;68.63;101101.13;107555;1253;109521;-63
2023/10/19 02:34:46;;;;;;;28.20;14.30;;;;;;;2.70;68.89;101098.90;107561;1252;106536;-62
2023/10/19 02:37:14;;;;;;;32.10;15.50;;;;;;;2.68;68.76;101096.68;107578;1253;97817;-62
2023/10/19 02:39:43;;;;;;;27.90;14.00;;;;;;;2.64;69.04;101092.44;107563;1251;97831;-62
2023/10/19 02:42:12;;;;;;;30.20;14.30;;;;;;;2.62;69.11;101094.48;107611;1251;111107;-61
2023/10/19 02:44:40;;;;;;;29.80;15.10;;;;;;;2.60;69.10;101092.78;107525;1252;109570;-62
2023/10/19 02:47:11;;;;;;;29.20;15.40;;;;;;;2.58;68.96;101097.90;107567;1251;108243;-62
2023/10/19 02:49:43;;;;;;;29.70;14.00;;;;;;;2.56;68.98;101096.56;107556;1251;97908;-62
2023/10/19 02:52:15;;;;;;;29.80;13.90;;;;;;;2.51;68.88;101098.40;107597;1253;97685;-63
2023/10/19 02:54:45;;;;;;;29.90;14.20;;;;;;;2.47;68.83;101099.27;107586;1251;110441;-63
2023/10/19 02:57:14;;;;;;;28.60;14.90;;;;;;;2.44;69.02;101097.86;107650;1251;108666;-63
2023/10/19 02:59:42;;;;;;;30.20;14.90;;;;;;;2.42;68.90;101099.92;107572;1253;105818;-63
2023/10/19 03:04:43;;;;;;;26.40;13.70;;;;;;;2.38;68.70;101102.75;107602;1253;97831;-62
2023/10/19 03:07:12;;;;;;;26.30;13.80;;;;;;;2.36;68.75;101101.41;107547;1252;112074;-63
2023/10/19 03:09:53;;;;;;;28.90;16.00;;;;;;;2.35;68.95;101103.08;107571;1253;108923;-61
2023/10/19 03:12:26;;;;;;;28.20;14.10;;;;;;;2.34;68.89;101099.23;107521;1253;107557;-61
2023/10/19 03:14:55;;;;;;;27.30;14.40;;;;;;;2.32;68.78;101094.70;107637;1251;97913;-61
2023/10/19 03:17:25;;;;;;;25.10;14.70;;;;;;;2.30;68.74;101095.17;107590;1255;97712;-61
2023/10/19 03:19:55;;;;;;;31.50;15.20;;;;;;;2.26;68.75;101090.77;107591;1254;112273;-61
2023/10/19 03:22:25;;;;;;;28.70;14.00;;;;;;;2.21;68.81;101090.48;107585;1253;109032;-62
2023/10/19 03:25:11;;;;;;;31.90;15.60;;;;;;;2.17;68.95;101090.31;107591;1253;107749;-62
2023/10/19 03:27:40;;;;;;;43.50;17.40;;;;;;;2.17;69.03;101088.88;107572;1257;98463;-62
2023/10/19 03:30:14;;;;;;;33.60;15.70;;;;;;;2.15;68.93;101085.46;107628;1252;98456;-62
2023/10/19 03:32:42;;;;;;;36.40;15.10;;;;;;;2.10;68.95;101085.15;107647;1253;111637;-61
2023/10/19 03:35:15;;;;;;;30.80;14.70;;;;;;;2.07;69.18;101081.06;107595;1251;109374;-62
2023/10/19 03:37:47;;;;;;;33.20;16.80;;;;;;;2.06;69.14;101077.58;107509;1255;108506;-61
2023/10/19 03:40:25;;;;;;;31.70;16.40;;;;;;;2.05;69.24;101075.48;107551;1253;97827;-62
2023/10/19 03:42:54;;;;;;;29.60;15.90;;;;;;;2.03;69.01;101075.23;107632;1251;97831;-60
2023/10/19 03:45:24;;;;;;;31.10;16.30;;;;;;;2.00;69.23;101071.82;107622;1253;111589;-61
2023/10/19 03:47:55;;;;;;;31.60;16.20;;;;;;;1.98;69.28;101071.41;107554;1253;108747;-62
2023/10/19 03:50:25;;;;;;;33.90;16.60;;;;;;;1.93;69.27;101074.81;107525;1253;107798;-63
2023/10/19 03:52:53;;;;;;;40.50;17.40;;;;;;;1.86;69.42;101073.73;107463;1254;98474;-62
2023/10/19 03:55:23;;;;;;;29.20;16.00;;;;;;;1.79;69.66;101074.40;107551;1253;97717;-62
2023/10/19 03:57:54;;;;;;;29.40;15.40;;;;;;;1.75;69.73;101065.59;107609;1253;110635;-63
2023/10/19 04:00:28;;;;;;;30.10;15.80;;;;;;;1.74;69.83;101062.27;107618;1251;108623;-63
2023/10/19 04:02:58;;;;;;;35.00;16.10;;;;;;;1.72;69.81;101060.74;107482;1253;108385;-63
2023/10/19 04:05:28;;;;;;;27.50;14.70;;;;;;;1.68;69.81;101058.64;107566;1251;97817;-63
2023/10/19 04:08:01;;;;;;;26.00;14.90;;;;;;;1.64;69.90;101054.05;107563;1253;98446;-62
2023/10/19 04:10:30;;;;;;;31.40;14.90;;;;;;;1.63;69.98;101057.51;107602;1253;111901;-62
2023/10/19 04:13:01;;;;;;;27.40;15.50;;;;;;;1.58;70.10;101049.41;107585;1253;109891;-63
2023/10/19 04:15:33;;;;;;;30.10;15.20;;;;;;;1.51;70.15;101052.38;107565;1251;108580;-64
2023/10/19 04:18:13;;;;;;;23.10;12.80;;;;;;;1.46;70.24;101055.77;107580;1253;97918;-62
2023/10/19 04:23:20;;;;;;;28.60;14.10;;;;;;;1.44;70.47;101050.05;107599;1251;111759;-63
2023/10/19 04:25:49;;;;;;;25.90;14.20;;;;;;;1.43;70.60;101048.48;107665;1251;107979;-62
2023/10/19 04:28:30;;;;;;;30.30;15.80;;;;;;;1.45;70.73;101053.88;107560;1251;107335;-62
2023/10/19 04:31:06;;;;;;;36.80;14.50;;;;;;;1.48;71.02;101053.01;107580;1255;97817;-63
2023/10/19 04:33:35;;;;;;;25.00;14.30;;;;;;;1.50;70.98;101045.14;107565;1253;97585;-62
2023/10/19 04:36:05;;;;;;;28.50;14.80;;;;;;;1.50;70.78;101046.06;107544;1253;112083;-62
2023/10/19 04:38:33;;;;;;;24.50;14.10;;;;;;;1.49;70.67;101048.05;107560;1253;108481;-63
2023/10/19 04:41:09;;;;;;;26.90;13.60;;;;;;;1.48;70.77;101043.81;107504;1253;108250;-61
2023/10/19 04:43:39;;;;;;;30.90;14.40;;;;;;;1.47;70.51;101046.54;107668;1253;97834;-62
2023/10/19 04:46:11;;;;;;;25.80;14.10;;;;;;;1.46;70.67;101044.12;107596;1251;98501;-62
2023/10/19 04:48:41;;;;;;;25.70;14.70;;;;;;;1.47;70.71;101036.66;107621;1253;112808;-62
2023/10/19 04:51:11;;;;;;;30.10;15.90;;;;;;;1.49;70.82;101031.96;107597;1253;108976;-62
2023/10/19 04:53:39;;;;;;;25.10;14.50;;;;;;;1.50;70.65;101033.33;107616;1251;107737;-63
2023/10/19 04:56:09;;;;;;;26.10;13.80;;;;;;;1.53;70.67;101031.06;107596;1253;97819;-64
2023/10/19 04:58:37;;;;;;;28.90;15.70;;;;;;;1.55;70.75;101035.18;107607;1252;97704;-63
2023/10/19 05:01:06;;;;;;;26.50;14.20;;;;;;;1.58;71.02;101034.73;107644;1251;111514;-62
2023/10/19 05:03:35;;;;;;;37.40;16.00;;;;;;;1.62;70.90;101039.34;107649;1256;109692;-62
2023/10/19 05:06:03;;;;;;;34.70;15.00;;;;;;;1.67;71.10;101040.48;107480;1257;108070;-63
2023/10/19 05:08:32;;;;;;;21.70;13.90;;;;;;;1.77;71.26;101040.17;107506;1254;97831;-63
2023/10/19 05:11:01;;;;;;;22.40;14.40;;;;;;;1.88;71.21;101040.77;107472;1258;97993;-63
2023/10/19 05:13:32;;;;;;;25.40;13.60;;;;;;;1.98;71.19;101047.31;107621;1253;112222;-63
2023/10/19 05:16:01;;;;;;;31.60;15.20;;;;;;;2.10;71.18;101054.40;107641;1253;109084;-63
2023/10/19 05:18:29;;;;;;;34.30;16.70;;;;;;;2.20;71.20;101061.16;107612;1251;107673;-62
2023/10/19 05:20:57;;;;;;;54.50;19.90;;;;;;;2.31;71.29;101058.14;107592;1256;97836;-63
2023/10/19 05:23:27;;;;;;;61.10;24.20;;;;;;;2.41;71.09;101055.70;107660;1251;98366;-64
2023/10/19 05:26:04;;;;;;;73.80;23.80;;;;;;;2.49;71.20;101052.28;107729;1251;111448;-61
2023/10/19 05:28:33;;;;;;;45.50;22.40;;;;;;;2.58;71.36;101058.05;107555;1253;109849;-61
2023/10/19 05:31:01;;;;;;;40.00;17.80;;;;;;;2.68;71.57;101054.52;107539;1256;108126;-63
2023/10/19 05:33:30;;;;;;;45.10;18.30;;;;;;;2.80;72.04;101050.54;107561;1256;96523;-63
2023/10/19 05:35:58;;;;;;;34.00;16.90;;;;;;;2.91;72.43;101036.86;107591;1256;98466;-63
2023/10/19 05:38:27;;;;;;;37.50;18.60;;;;;;;2.96;72.60;101035.35;107624;1256;112333;-62
2023/10/19 05:40:57;;;;;;;37.80;17.10;;;;;;;3.00;73.68;101034.27;107597;1253;108568;-62
2023/10/19 05:43:26;;;;;;;29.00;16.10;;;;;;;2.96;73.30;101035.17;107586;1251;107575;-60
2023/10/19 05:45:54;;;;;;;27.10;16.10;;;;;;;3.01;73.43;101035.15;107524;1253;97712;-61
2023/10/19 05:48:24;;;;;;;33.20;15.80;;;;;;;2.99;73.51;101035.21;107528;1251;98568;-62
2023/10/19 05:50:52;;;;;;;36.60;16.30;;;;;;;3.05;73.40;101035.23;107624;1251;110948;-62
2023/10/19 05:53:22;;;;;;;30.40;13.70;;;;;;;3.12;73.69;101034.48;107605;1251;108938;-62
2023/10/19 05:55:50;;;;;;;22.70;13.10;;;;;;;3.15;73.69;101038.96;107548;1255;107321;-63
2023/10/19 05:58:20;;;;;;;31.70;14.20;;;;;;;3.18;73.51;101035.11;107512;1256;97820;-61
2023/10/19 06:00:51;;;;;;;29.60;16.00;;;;;;;3.26;73.60;101033.23;107618;1253;97823;-63
2023/10/19 06:03:20;;;;;;;30.90;16.00;;;;;;;3.37;73.52;101033.20;107566;1254;110861;-61
2023/10/19 06:05:49;;;;;;;30.70;15.40;;;;;;;3.48;73.58;101034.39;107644;1255;109067;-61
2023/10/19 06:08:17;;;;;;;34.80;15.30;;;;;;;3.59;73.27;101035.94;107563;1253;108237;-62
2023/10/19 06:10:53;;;;;;;22.70;13.80;;;;;;;3.68;73.65;101036.30;107586;1256;97838;-63
2023/10/19 06:13:22;;;;;;;30.10;14.20;;;;;;;3.70;73.27;101033.34;107584;1253;97812;-63
2023/10/19 06:15:51;;;;;;;26.90;14.80;;;;;;;3.66;72.95;101031.48;107520;1257;111816;-61
2023/10/19 06:18:20;;;;;;;41.40;17.40;;;;;;;3.68;73.01;101029.74;107567;1256;109057;-61
2023/10/19 06:20:50;;;;;;;23.30;14.70;;;;;;;3.76;73.04;101031.78;107590;1256;107795;-61
2023/10/19 06:23:19;;;;;;;30.60;14.70;;;;;;;3.84;72.84;101029.23;107502;1256;98009;-63
2023/10/19 06:25:47;;;;;;;33.30;14.60;;;;;;;3.92;72.85;101023.06;107615;1255;97947;-66
2023/10/19 06:28:16;;;;;;;29.80;15.10;;;;;;;4.00;72.71;101024.05;107614;1254;111913;-61
2023/10/19 06:30:45;;;;;;;30.60;14.20;;;;;;;4.10;72.67;101021.55;107566;1253;108796;-63
2023/10/19 06:33:13;;;;;;;23.90;12.30;;;;;;;4.14;72.50;101016.33;107478;1255;107271;-63
2023/10/19 06:35:42;;;;;;;27.70;11.30;;;;;;;4.20;72.68;101012.23;107572;1256;97719;-62
2023/10/19 06:38:11;;;;;;;17.20;10.20;;;;;;;4.30;72.90;101012.42;107594;1254;98470;-63
2023/10/19 06:40:40;;;;;;;25.90;10.80;;;;;;;4.35;72.50;101007.27;107570;1254;111344;-62
2023/10/19 06:43:09;;;;;;;23.40;11.10;;;;;;;4.49;72.53;101008.64;107651;1254;109318;-63
2023/10/19 06:45:37;;;;;;;15.80;10.10;;;;;;;4.62;72.70;101008.75;107545;1256;107812;-61
2023/10/19 06:48:06;;;;;;;19.10;10.60;;;;;;;4.76;72.63;101003.67;107547;1256;97880;-62
2023/10/19 06:50:36;;;;;;;20.00;10.40;;;;;;;4.88;72.44;100995.27;107536;1253;97845;-64
2023/10/19 06:53:05;;;;;;;25.40;9.90;;;;;;;4.99;72.29;100994.42;107634;1254;111475;-64
2023/10/19 06:55:34;;;;;;;23.70;9.50;;;;;;;5.11;72.49;100985.35;107559;1254;109577;-63
2023/10/19 06:58:04;;;;;;;31.10;10.80;;;;;;;5.24;72.58;100979.90;107395;1251;107577;-65
2023/10/19 07:00:34;;;;;;;16.10;9.30;;;;;;;5.41;72.90;100965.84;107507;1251;97736;-63
2023/10/19 07:03:03;;;;;;;18.90;9.50;;;;;;;5.56;72.35;100964.06;107591;1254;98471;-63
2023/10/19 07:05:32;;;;;;;20.50;9.80;;;;;;;5.72;72.48;100962.30;107588;1256;111118;-63
2023/10/19 07:08:01;;;;;;;17.20;10.70;;;;;;;5.92;72.42;100959.78;107437;1255;109165;-65
2023/10/19 07:10:30;;;;;;;19.40;9.50;;;;;;;6.12;72.28;100952.77;107605;1256;107408;-63
2023/10/19 07:12:59;;;;;;;23.00;10.30;;;;;;;6.32;72.16;100950.38;107628;1252;97877;-63
2023/10/19 07:15:29;;;;;;;20.00;10.30;;;;;;;6.55;72.42;100945.45;107611;1251;98367;-62
2023/10/19 07:17:58;;;;;;;17.00;9.70;;;;;;;6.79;72.21;100940.92;107612;1256;110969;-62
2023/10/19 07:22:57;;;;;;;12.90;7.40;;;;;;;7.18;71.85;100936.41;107650;1251;108526;-63
2023/10/19 07:25:26;;;;;;;7.70;6.00;;;;;;;7.28;71.42;100935.67;107572;1251;97806;-62
2023/10/19 07:27:54;;;;;;;13.70;5.70;;;;;;;7.29;71.25;100932.73;107517;1253;98358;-65
2023/10/19 07:30:26;;;;;;;13.70;6.10;;;;;;;7.37;71.28;100926.66;107590;1255;112010;-65
2023/10/19 07:32:58;;;;;;;12.50;6.40;;;;;;;7.51;71.52;100924.58;107666;1251;109977;-63
2023/10/19 07:35:27;;;;;;;20.70;6.80;;;;;;;7.65;71.36;100921.63;107531;1251;108255;-64
2023/10/19 07:37:56;;;;;;;16.20;7.80;;;;;;;7.75;71.27;100914.76;107576;1251;97817;-63
2023/10/19 07:40:25;;;;;;;11.00;7.30;;;;;;;7.97;71.34;100911.52;107578;1251;98405;-64
2023/10/19 07:42:56;;;;;;;15.70;7.50;;;;;;;8.12;70.91;100902.02;107687;1251;112212;-63
2023/10/19 07:45:25;;;;;;;11.00;7.00;;;;;;;8.18;70.82;100903.02;107608;1251;110329;-63
2023/10/19 07:47:53;;;;;;;13.00;6.70;;;;;;;8.16;70.89;100898.66;107536;1251;107895;-64
2023/10/19 07:50:22;;;;;;;15.90;6.70;;;;;;;8.22;70.86;100891.63;107592;1254;98316;-63
2023/10/19 07:52:53;;;;;;;11.80;6.80;;;;;;;8.42;70.89;100889.69;107701;1256;97807;-62
2023/10/19 07:55:25;;;;;;;13.60;6.10;;;;;;;8.63;70.97;100886.89;107592;1256;111841;-63
2023/10/19 07:57:54;;;;;;;14.20;6.80;;;;;;;8.81;70.62;100887.41;107622;1251;108874;-63
2023/10/19 08:00:23;;;;;;;12.00;6.60;;;;;;;8.86;70.08;100883.78;107582;1251;107358;-62
2023/10/19 08:02:55;;;;;;;11.00;7.00;;;;;;;8.88;69.91;100875.58;107714;1251;97875;-63
2023/10/19 08:05:24;;;;;;;12.20;6.80;;;;;;;8.91;69.79;100875.86;107607;1251;98378;-62
2023/10/19 08:07:52;;;;;;;10.60;7.20;;;;;;;8.95;69.89;100873.11;107620;1256;111764;-64
2023/10/19 08:10:21;;;;;;;9.00;6.80;;;;;;;9.09;70.11;100871.98;107604;1251;109345;-62
2023/10/19 08:12:49;;;;;;;11.30;6.20;;;;;;;9.24;69.84;100862.88;107640;1250;109041;-62
2023/10/19 08:15:20;;;;;;;13.00;6.70;;;;;;;9.37;69.32;100860.42;107744;1251;97872;-65
2023/10/19 08:17:50;;;;;;;13.90;7.10;;;;;;;9.51;69.49;100857.80;107587;1251;97924;-62
2023/10/19 08:20:31;;;;;;;17.10;7.30;;;;;;;9.68;69.30;100847.14;107601;1251;112252;-62
2023/10/19 08:23:05;;;;;;;10.60;6.70;;;;;;;9.93;69.33;100848.95;107613;1253;108396;-62
2023/10/19 08:25:34;;;;;;;9.80;7.00;;;;;;;10.19;68.96;100843.70;107503;1251;107162;-63
2023/10/19 08:28:22;;;;;;;9.10;6.70;;;;;;;10.42;68.59;100838.16;107581;1254;97948;-62
2023/10/19 08:30:57;;;;;;;10.90;7.20;;;;;;;10.64;68.21;100831.30;107601;1251;97838;-62
2023/10/19 08:33:27;;;;;;;24.50;13.00;;;;;;;10.87;66.72;100831.79;107593;1254;112249;-63
2023/10/19 08:35:56;;;;;;;16.80;8.50;;;;;;;11.07;67.08;100828.89;107645;1254;109523;-61
2023/10/19 08:38:26;;;;;;;18.70;8.30;;;;;;;11.38;66.44;100826.70;107672;1254;108422;-63
2023/10/19 08:40:55;;;;;;;14.50;8.00;;;;;;;11.63;65.99;100824.39;107642;1254;97945;-63
2023/10/19 08:43:24;;;;;;;12.50;7.30;;;;;;;11.94;65.80;100821.71;107673;1254;97849;-62
2023/10/19 08:45:53;;;;;;;26.90;7.60;;;;;;;12.28;65.44;100813.48;107607;1254;112026;-63
2023/10/19 08:48:23;;;;;;;15.90;7.00;;;;;;;12.66;64.61;100811.14;107646;1253;109195;-63
2023/10/19 08:50:52;;;;;;;14.40;8.80;;;;;;;13.00;63.16;100808.38;107648;1254;109448;-64
2023/10/19 08:53:22;;;;;;;14.00;7.30;;;;;;;13.32;61.62;100802.38;107620;1253;97825;-62
2023/10/19 08:55:54;;;;;;;21.90;7.60;;;;;;;13.76;60.45;100797.45;107579;1254;97736;-63
2023/10/19 08:58:23;;;;;;;20.00;7.60;;;;;;;14.47;59.08;100786.16;107674;1254;110988;-63
2023/10/19 09:00:54;;;;;;;27.30;7.50;;;;;;;15.38;57.39;100783.27;107578;1255;109074;-63
2023/10/19 09:03:24;;;;;;;12.60;7.00;;;;;;;16.32;55.47;100776.21;107614;1251;108296;-63
2023/10/19 09:05:56;;;;;;;19.60;7.20;;;;;;;17.07;53.38;100767.45;107636;1257;97889;-63
2023/10/19 09:08:25;;;;;;;12.20;7.70;;;;;;;17.88;52.69;100758.92;107649;1251;97783;-63
2023/10/19 09:10:53;;;;;;;17.50;7.20;;;;;;;18.59;49.61;100745.30;107622;1251;111250;-64
2023/10/19 09:13:23;;;;;;;11.50;7.00;;;;;;;19.15;48.55;100742.40;107565;1253;108578;-63
2023/10/19 09:15:53;;;;;;;16.60;7.00;;;;;;;19.76;47.79;100733.77;107630;1254;108614;-63
2023/10/19 09:18:27;;;;;;;10.60;6.50;;;;;;;20.35;45.86;100728.77;107689;1251;97785;-64
2023/10/19 09:21:07;;;;;;;9.90;6.00;;;;;;;20.88;44.90;100727.58;107609;1255;97941;-64
2023/10/19 09:23:36;;;;;;;12.10;6.20;;;;;;;21.38;43.67;100716.02;107705;1256;112183;-63
2023/10/19 09:26:06;;;;;;;15.20;6.00;;;;;;;21.87;43.11;100712.09;107514;1251;109120;-63
2023/10/19 09:28:37;;;;;;;13.50;6.20;;;;;;;22.47;42.56;100709.49;107587;1251;108230;-62
2023/10/19 09:31:09;;;;;;;9.10;6.80;;;;;;;22.93;40.81;100707.64;107626;1254;97756;-63
2023/10/19 09:33:45;;;;;;;10.30;6.00;;;;;;;23.33;40.07;100708.05;107736;1251;97892;-63
2023/10/19 09:36:14;;;;;;;14.00;6.20;;;;;;;23.90;39.89;100705.38;107601;1250;110853;-65
2023/10/19 09:38:53;;;;;;;19.20;6.10;;;;;;;24.49;38.29;100701.42;107648;1251;110033;-62
2023/10/19 09:41:22;;;;;;;12.60;5.00;;;;;;;24.97;37.22;100689.65;107602;1251;107985;-62
2023/10/19 09:43:51;;;;;;;20.80;6.00;;;;;;;25.36;36.33;100683.88;107580;1256;97837;-62
2023/10/19 09:46:29;;;;;;;11.50;5.10;;;;;;;25.80;35.48;100684.55;107613;1254;98373;-63
2023/10/19 09:48:59;;;;;;;15.90;5.40;;;;;;;26.11;34.81;100679.86;107595;1254;111421;-63
2023/10/19 09:51:28;;;;;;;11.70;4.60;;;;;;;26.53;34.55;100667.00;107630;1254;110249;-63
2023/10/19 09:54:04;;;;;;;9.50;4.50;;;;;;;27.02;33.00;100660.98;107646;1251;107308;-62
2023/10/19 09:56:41;;;;;;;7.70;3.80;;;;;;;27.18;30.95;100656.34;107637;1250;97859;-63
2023/10/19 09:59:29;;;;;;;10.10;3.30;;;;;;;27.55;31.31;100658.08;107508;1253;97813;-63
2023/10/19 10:02:03;;;;;;;8.40;3.10;;;;;;;27.98;27.90;100667.52;107605;1254;113249;-62
2023/10/19 10:04:32;;;;;;;10.30;3.80;;;;;;;27.93;26.84;100669.30;107524;1254;109967;-63
2023/10/19 10:07:05;;;;;;;6.50;3.30;;;;;;;27.78;27.22;100659.25;107524;1257;107281;-62
2023/10/19 10:09:40;;;;;;;10.70;3.10;;;;;;;27.73;27.01;100659.05;107425;1253;97846;-63
2023/10/19 10:12:26;;;;;;;8.70;3.70;;;;;;;27.82;27.22;100657.02;104853;1254;3533952;-62
2023/10/19 10:14:58;;;;;;;17.10;3.80;;;;;;;28.02;26.73;100660.85;107516;1253;111617;-62
2023/10/19 10:17:27;;;;;;;9.50;3.00;;;;;;;28.14;25.56;100664.84;107550;1254;109081;-63
2023/10/19 10:20:18;;;;;;;7.40;3.50;;;;;;;28.06;24.84;100666.06;107463;1253;108491;-63
2023/10/19 10:23:17;;;;;;;7.30;3.30;;;;;;;27.75;25.71;100663.58;107576;1252;97863;-63
2023/10/19 10:25:48;;;;;;;6.60;3.60;;;;;;;27.91;25.74;100651.63;107509;1255;97911;-62
2023/10/19 10:28:17;;;;;;;7.00;3.30;;;;;;;28.06;25.50;100646.54;107580;1254;111337;-63
2023/10/19 10:31:08;;;;;;;11.00;3.50;;;;;;;28.15;25.06;100640.74;107622;1254;109703;-63
2023/10/19 10:33:45;;;;;;;13.80;3.60;;;;;;;28.29;24.99;100633.61;107574;1254;106549;-62
2023/10/19 10:36:14;;;;;;;7.10;3.00;;;;;;;28.48;25.18;100625.09;107436;1253;97824;-63
2023/10/19 10:38:44;;;;;;;8.80;2.90;;;;;;;28.78;23.24;100630.30;107511;1251;98382;-63
2023/10/19 10:41:20;;;;;;;9.00;3.20;;;;;;;28.60;22.54;100620.62;107446;1254;112334;-64
2023/10/19 10:43:54;;;;;;;10.30;3.80;;;;;;;28.33;24.18;100610.26;107499;1252;109077;-62
2023/10/19 10:46:29;;;;;;;12.90;2.90;;;;;;;28.43;24.23;100607.86;107464;1251;108984;-64
2023/10/19 10:48:58;;;;;;;8.40;2.80;;;;;;;28.88;24.64;100595.27;107500;1251;97697;-62
2023/10/19 10:51:31;;;;;;;10.00;2.60;;;;;;;29.39;23.58;100592.75;107485;1251;97889;-63
2023/10/19 10:54:00;;;;;;;6.40;3.10;;;;;;;29.74;22.69;100586.27;107485;1254;111471;-64
2023/10/19 10:56:28;;;;;;;6.70;2.50;;;;;;;29.74;22.29;100590.76;107580;1254;110119;-63
2023/10/19 10:58:57;;;;;;;8.00;2.30;;;;;;;29.74;22.20;100585.10;107658;1254;108707;-62
2023/10/19 11:01:34;;;;;;;10.50;2.60;;;;;;;29.67;22.34;100578.30;107640;1251;97833;-62
2023/10/19 11:04:11;;;;;;;7.60;2.30;;;;;;;29.79;22.11;100571.61;107638;1251;97681;-61
2023/10/19 11:06:48;;;;;;;6.20;2.10;;;;;;;29.73;21.85;100561.81;107618;1256;112092;-62
2023/10/19 11:09:21;;;;;;;10.70;3.30;;;;;;;29.81;21.78;100557.30;107627;1251;108547;-63
2023/10/19 11:11:52;;;;;;;;;;;;;;;29.40;22.66;100558.18;107633;1251;107606;-62
2023/10/19 11:14:24;;;;;;;10.50;2.20;;;;;;;28.90;23.20;100559.91;107626;1251;97865;-61
2023/10/19 11:16:54;;;;;;;10.40;2.60;;;;;;;28.44;22.89;100557.42;107637;1255;97855;-62
2023/10/19 11:19:39;;;;;;;5.20;2.20;;;;;;;27.79;22.96;100566.06;107620;1251;112303;-61
2023/10/19 11:22:10;;;;;;;8.00;3.10;;;;;;;27.06;23.41;100564.66;107640;1251;109516;-61
2023/10/19 11:24:40;;;;;;;7.50;2.20;;;;;;;26.72;23.67;100551.55;107641;1251;107327;-62
2023/10/19 11:27:10;;;;;;;5.00;2.30;;;;;;;26.53;24.30;100545.85;107657;1251;97826;-62
2023/10/19 11:29:38;;;;;;;9.20;2.20;;;;;;;26.29;24.38;100538.42;107570;1254;97841;-62
2023/10/19 11:32:06;;;;;;;4.40;2.30;;;;;;;26.04;24.87;100533.11;107667;1253;111548;-62
2023/10/19 11:34:37;;;;;;;9.90;2.90;;;;;;;26.06;24.84;100522.37;107579;1251;108928;-62
2023/10/19 11:37:06;;;;;;;6.60;2.30;;;;;;;26.09;24.94;100520.45;107599;1251;108162;-62
2023/10/19 11:39:34;;;;;;;5.90;2.50;;;;;;;25.67;24.77;100509.89;107597;1254;97831;-62
2023/10/19 11:42:03;;;;;;;5.90;2.60;;;;;;;25.10;25.09;100517.91;107628;1253;97926;-63
2023/10/19 11:44:31;;;;;;;8.20;2.70;;;;;;;24.45;25.78;100500.19;107662;1252;111004;-62
2023/10/19 11:47:00;;;;;;;8.90;3.20;;;;;;;24.06;26.61;100491.67;107640;1253;109320;-61